La Mesa, CA (91943)

1:37 PM PDT on May 25, 2015 (GMT -0700)
KCALAMES9 | | Change Station
CLOSE
Current Station
Personal Weather Station
Location: La Mesa, CA
Elevation: 676 ft
Nearby Weather Stations

Elev 676 ft 32.79 °N, 117.01 °W | Updated 51 minutes ago

Overcast
Overcast
61.0 °F
Feels Like 61.0 °F
N
6.0
Wind Variable Wind from WNW
Gusts 6.0 mph

Today
High -- | Low -- °F
--% Chance of Precip.
Yesterday
High -- | Low -- °F
Precip. -- in
5:43 AM 7:46 PM
Waxing Crescent, 51% visible
Pressure 30.02 in
Visibility 10.0 miles
Clouds Mostly Cloudy 1900 ft
Overcast 2700 ft
Dew Point 57 °F
Humidity 87%
Rainfall in
Snow Depth Not available.
UV 4 out of 12
Pollen 5.70 out of 12
Air Quality Not available.
Flu Activity Sporadic
METAR KSEE 252015Z AUTO 30008KT 10SM BKN019 OVC027 18/13 A3002 RMK AO2

More Conditions Fewer Conditions

Pressure 30.02 in
Visibility 10.0 miles
Clouds Mostly Cloudy 1900 ft
Overcast 2700 ft
Dew Point 57 °F
Humidity 87%
Rainfall in
Snow Depth Not available.
UV 4 out of 12
Pollen 5.70 out of 12
Air Quality Not available.
Flu Activity Sporadic
METAR KSEE 252015Z AUTO 30008KT 10SM BKN019 OVC027 18/13 A3002 RMK AO2

More Conditions Fewer Conditions

10-Day Weather Forecast

Almanac

Astronomy

May. 25, 2015 Rise Set
Actual Time
Civil Twilight
Nautical Twilight
Astronomical Twilight
Moon
Length of Visible Light
Length of Day
Tomorrow will be .
, % of the Moon is Illuminated

Today's Extremes

State Highs State Lows

Community

WunderPhotos

Upload Photos

1,824,120 photos uploaded!

WunderBlogs® & News

Nearby

Air Quality

  Air Quality AQ Index Pollutant
Not available.

Snow Depth

Station Depth Elevation

Earthquake Activity

City Distance Mag. Time & Date
Minimum magnitude displayed is 2.5.

Coastal Water Temperatures

Place Temperature

Stations

Nearby Weather Stations

Station Location Temp. Windchill Dew Point Humidity Wind Precip. Elev Updated Type